createdAt,value
2022-08-17T00:00:34.482Z,74.13
2022-08-17T00:03:10.223Z,75.18
2022-08-17T00:05:44.355Z,75.57
2022-08-17T00:08:12.835Z,75.79
2022-08-17T00:10:42.389Z,76.31
2022-08-17T00:13:13.082Z,76.20
2022-08-17T00:15:41.592Z,75.66
2022-08-17T00:19:01.850Z,74.88
2022-08-17T00:21:01.152Z,74.97
2022-08-17T00:23:29.817Z,75.43
2022-08-17T00:25:58.051Z,76.06
2022-08-17T00:28:26.518Z,75.77
2022-08-17T00:31:00.055Z,76.00
2022-08-17T00:33:31.122Z,75.44
2022-08-17T00:36:02.428Z,75.48
2022-08-17T00:38:31.349Z,75.51
2022-08-17T00:41:01.988Z,75.41
2022-08-17T00:43:34.218Z,75.97
2022-08-17T00:46:05.947Z,75.93
2022-08-17T00:48:34.756Z,76.41
2022-08-17T00:51:13.130Z,76.79
2022-08-17T00:53:44.962Z,77.03
2022-08-17T00:56:18.795Z,76.98
2022-08-17T00:58:47.144Z,76.38
2022-08-17T01:01:21.329Z,76.97
2022-08-17T01:03:52.421Z,77.32
2022-08-17T01:06:24.245Z,77.20
2022-08-17T01:08:57.642Z,77.61
2022-08-17T01:11:26.225Z,77.22
2022-08-17T01:13:54.995Z,77.45
2022-08-17T01:16:25.748Z,77.72
2022-08-17T01:18:58.138Z,78.26
2022-08-17T01:21:33.080Z,78.53
2022-08-17T01:24:03.988Z,78.92
2022-08-17T01:26:34.496Z,78.89
2022-08-17T01:29:04.426Z,78.96
2022-08-17T01:31:37.337Z,78.65
2022-08-17T01:34:09.777Z,78.93
2022-08-17T01:36:38.615Z,79.43
2022-08-17T01:39:17.454Z,79.39
2022-08-17T01:41:46.784Z,79.66
2022-08-17T01:44:17.270Z,80.30
2022-08-17T01:46:45.501Z,79.84
2022-08-17T01:49:13.898Z,80.72
2022-08-17T01:51:42.083Z,80.97
2022-08-17T01:54:13.990Z,80.47
2022-08-17T01:56:47.303Z,80.17
2022-08-17T01:59:17.314Z,80.77
2022-08-17T02:01:45.835Z,81.22
2022-08-17T02:04:14.530Z,80.64
2022-08-17T02:06:45.135Z,80.73
2022-08-17T02:09:25.838Z,81.06
2022-08-17T02:11:54.989Z,81.09
2022-08-17T02:14:25.556Z,81.14
2022-08-17T02:16:54.359Z,81.05
2022-08-17T02:19:23.111Z,81.44
2022-08-17T02:21:53.049Z,81.99
2022-08-17T02:24:58.627Z,81.18
2022-08-17T02:27:13.971Z,82.17
2022-08-17T02:29:42.206Z,82.71
2022-08-17T02:32:25.432Z,83.25
2022-08-17T02:34:56.146Z,83.47
2022-08-17T02:37:24.488Z,82.78
2022-08-17T02:39:54.271Z,83.34
2022-08-17T02:42:28.806Z,83.55
2022-08-17T02:44:57.029Z,83.56
2022-08-17T02:47:25.865Z,82.92
2022-08-17T02:49:55.647Z,83.40
2022-08-17T02:52:42.662Z,83.64
2022-08-17T02:55:16.643Z,84.17
2022-08-17T02:57:45.128Z,84.35
2022-08-17T03:00:17.197Z,84.22
2022-08-17T03:02:46.368Z,84.62
2022-08-17T03:05:17.200Z,84.59
2022-08-17T03:07:45.839Z,83.91
2022-08-17T03:10:16.705Z,84.99
2022-08-17T03:12:46.033Z,85.30
2022-08-17T03:15:17.715Z,85.71
2022-08-17T03:17:46.261Z,85.47
2022-08-17T03:20:17.441Z,85.51
2022-08-17T03:22:53.073Z,85.93
2022-08-17T03:25:26.020Z,85.78
2022-08-17T03:27:55.364Z,85.97
2022-08-17T03:30:24.728Z,86.64
2022-08-17T03:32:55.348Z,85.28
2022-08-17T03:35:26.529Z,86.21
2022-08-17T03:38:00.029Z,86.05
2022-08-17T03:40:37.013Z,86.83
2022-08-17T03:43:21.599Z,87.07
2022-08-17T03:46:28.836Z,86.92
2022-08-17T03:49:12.495Z,86.48
2022-08-17T03:51:58.266Z,87.11
2022-08-17T03:54:43.961Z,87.63
2022-08-17T03:57:14.011Z,88.34
2022-08-17T03:59:42.269Z,88.85
2022-08-17T04:02:15.257Z,88.47
2022-08-17T04:04:43.858Z,87.96
2022-08-17T04:07:12.547Z,88.07
2022-08-17T04:09:40.706Z,87.71
2022-08-17T04:12:09.215Z,87.69
2022-08-17T04:14:53.330Z,87.87
2022-08-17T04:17:25.373Z,87.52
2022-08-17T04:19:54.302Z,87.19
2022-08-17T04:22:30.441Z,87.30
2022-08-17T04:25:07.426Z,88.13
2022-08-17T04:27:35.621Z,87.44
2022-08-17T04:30:08.216Z,87.90
2022-08-17T04:33:04.974Z,87.27
2022-08-17T04:35:37.214Z,87.61
2022-08-17T04:38:05.829Z,87.78
2022-08-17T04:40:51.676Z,86.87
2022-08-17T04:43:22.478Z,85.68
2022-08-17T04:45:56.313Z,84.64
2022-08-17T04:48:35.783Z,84.01
2022-08-17T04:51:07.681Z,83.87
2022-08-17T04:53:35.928Z,83.72
2022-08-17T04:56:04.381Z,83.38
2022-08-17T04:58:32.594Z,83.13
2022-08-17T05:01:02.687Z,83.36
2022-08-17T05:03:31.480Z,83.13
2022-08-17T05:05:59.959Z,82.87
2022-08-17T05:08:28.316Z,82.58
2022-08-17T05:10:56.545Z,82.14
2022-08-17T05:13:27.204Z,81.11
2022-08-17T05:16:01.980Z,81.07
2022-08-17T05:18:31.916Z,81.08
2022-08-17T05:21:00.183Z,81.71
2022-08-17T05:23:35.559Z,80.34
2022-08-17T05:26:23.135Z,80.67
2022-08-17T05:28:57.039Z,80.14
2022-08-17T05:31:28.883Z,79.96
2022-08-17T05:33:57.122Z,78.98
2022-08-17T05:36:41.707Z,77.65
2022-08-17T05:39:17.050Z,76.39
2022-08-17T05:41:49.064Z,74.37
2022-08-17T05:44:18.418Z,73.40
2022-08-17T05:46:51.451Z,73.20
2022-08-17T05:49:28.533Z,72.93
2022-08-17T05:52:14.711Z,72.72
2022-08-17T05:55:04.464Z,72.09
2022-08-17T05:57:49.702Z,71.73
2022-08-17T06:00:30.685Z,70.87
2022-08-17T06:03:20.212Z,70.55
2022-08-17T06:06:01.633Z,70.11
2022-08-17T06:08:36.742Z,69.46
2022-08-17T06:11:16.592Z,69.73
2022-08-17T06:14:11.947Z,69.06
2022-08-17T06:16:45.674Z,67.36
2022-08-17T06:19:18.627Z,66.55
2022-08-17T06:21:51.473Z,66.44
2022-08-17T06:24:28.726Z,66.28
2022-08-17T06:27:03.050Z,65.98
2022-08-17T06:29:42.756Z,65.29
2022-08-17T06:32:13.205Z,64.22
2022-08-17T06:34:46.311Z,62.83
2022-08-17T06:37:29.633Z,62.15
2022-08-17T06:40:11.151Z,61.91
2022-08-17T06:43:02.205Z,61.71
2022-08-17T06:45:40.093Z,61.83
2022-08-17T06:48:13.136Z,62.08
2022-08-17T06:50:54.127Z,61.78
2022-08-17T06:53:28.223Z,60.99
2022-08-17T06:56:03.397Z,60.57
2022-08-17T06:58:33.514Z,60.69
2022-08-17T07:01:09.266Z,61.25
2022-08-17T07:03:41.094Z,60.92
2022-08-17T07:06:15.024Z,61.54
2022-08-17T07:08:52.623Z,60.72
2022-08-17T07:11:27.421Z,60.72
2022-08-17T07:14:04.704Z,60.58
2022-08-17T07:16:40.079Z,60.02
2022-08-17T07:19:10.892Z,58.43
2022-08-17T07:21:49.827Z,57.34
2022-08-17T07:24:33.362Z,58.23
2022-08-17T07:27:08.127Z,58.61
2022-08-17T07:29:40.534Z,58.80
2022-08-17T07:32:11.183Z,58.52
2022-08-17T07:35:23.257Z,58.82
2022-08-17T07:38:24.707Z,58.36
2022-08-17T07:41:04.845Z,58.50
2022-08-17T07:43:35.709Z,57.64
2022-08-17T07:46:35.197Z,56.50
2022-08-17T07:49:25.754Z,54.79
2022-08-17T07:52:47.612Z,55.05
2022-08-17T07:54:50.733Z,54.70
2022-08-17T07:57:33.018Z,54.75
2022-08-17T08:00:31.544Z,53.14
2022-08-17T08:03:17.123Z,54.01
2022-08-17T08:05:57.516Z,53.30
2022-08-17T08:08:34.273Z,54.09
2022-08-17T08:11:10.245Z,52.53
2022-08-17T08:13:42.880Z,54.12
2022-08-17T08:16:22.789Z,54.25
2022-08-17T08:18:54.285Z,55.60
2022-08-17T08:21:32.836Z,55.22
2022-08-17T08:24:13.622Z,54.41
2022-08-17T08:26:51.043Z,53.88
2022-08-17T08:29:31.990Z,54.95
2022-08-17T08:32:14.876Z,52.83
2022-08-17T08:35:02.932Z,53.61
2022-08-17T08:37:43.137Z,53.06
2022-08-17T08:40:26.362Z,52.86
2022-08-17T08:43:04.675Z,49.18
2022-08-17T08:45:44.803Z,49.01
2022-08-17T08:48:52.878Z,45.59
2022-08-17T08:51:23.054Z,45.86
2022-08-17T08:54:03.454Z,46.70
2022-08-17T08:56:38.726Z,47.17
2022-08-17T08:59:21.488Z,48.45
2022-08-17T09:02:01.120Z,48.75
2022-08-17T09:05:10.643Z,47.24
2022-08-17T09:07:45.017Z,48.29
2022-08-17T09:10:24.720Z,46.48
2022-08-17T09:13:10.074Z,47.32
2022-08-17T09:15:45.621Z,46.96
2022-08-17T09:19:01.563Z,46.94
2022-08-17T09:21:18.181Z,45.88
2022-08-17T09:24:00.061Z,44.94
2022-08-17T09:26:35.850Z,45.55
2022-08-17T09:29:10.120Z,43.77
2022-08-17T09:31:48.742Z,44.98
2022-08-17T09:34:33.304Z,45.16
2022-08-17T09:37:12.366Z,45.34
2022-08-17T09:39:47.759Z,45.21
2022-08-17T09:42:22.881Z,43.91
2022-08-17T09:44:59.771Z,42.67
2022-08-17T09:47:34.807Z,41.31
2022-08-17T09:50:09.539Z,43.70
2022-08-17T09:52:37.791Z,42.73
2022-08-17T09:55:07.359Z,43.30
2022-08-17T09:57:59.364Z,43.33
2022-08-17T10:00:35.281Z,42.12
2022-08-17T10:03:29.124Z,41.28
2022-08-17T10:06:06.504Z,41.85
2022-08-17T10:08:43.132Z,41.81
2022-08-17T10:11:50.383Z,42.46
2022-08-17T10:14:37.358Z,40.40
2022-08-17T10:17:21.857Z,39.37
2022-08-17T10:19:59.537Z,39.61
2022-08-17T10:22:53.365Z,40.03
2022-08-17T10:25:54.672Z,41.08
2022-08-17T10:28:30.220Z,40.79
2022-08-17T10:31:33.320Z,40.69
2022-08-17T10:34:02.532Z,41.57
2022-08-17T10:36:48.476Z,42.25
2022-08-17T10:39:25.647Z,39.82
2022-08-17T10:41:59.073Z,40.30
2022-08-17T10:44:50.252Z,40.99
2022-08-17T10:47:20.637Z,40.98
2022-08-17T10:49:52.614Z,38.20
2022-08-17T10:52:50.274Z,38.98
2022-08-17T10:55:20.548Z,40.55
2022-08-17T10:57:51.422Z,40.25
2022-08-17T11:01:04.146Z,37.71
2022-08-17T11:03:33.473Z,38.75
2022-08-17T11:06:12.884Z,39.09
2022-08-17T11:09:27.867Z,37.43
2022-08-17T11:12:16.340Z,37.21
2022-08-17T11:15:00.608Z,38.97
2022-08-17T11:17:49.866Z,37.13
2022-08-17T11:20:36.009Z,39.46
2022-08-17T11:23:28.758Z,36.82
2022-08-17T11:26:04.468Z,38.14
2022-08-17T11:28:36.067Z,39.26
2022-08-17T11:31:11.101Z,36.77
2022-08-17T11:34:04.782Z,36.25
2022-08-17T11:36:52.093Z,36.84
2022-08-17T11:39:55.794Z,36.89
2022-08-17T11:42:39.134Z,36.52
2022-08-17T11:45:47.956Z,36.96
2022-08-17T11:48:44.203Z,36.61
2022-08-17T11:51:33.319Z,36.66
2022-08-17T11:54:31.690Z,37.41
2022-08-17T11:56:54.976Z,37.43
2022-08-17T12:00:06.306Z,36.01
2022-08-17T12:02:48.063Z,36.54
2022-08-17T12:05:36.084Z,36.80
2022-08-17T12:08:15.346Z,34.83
2022-08-17T12:11:03.538Z,36.03
2022-08-17T12:13:35.212Z,36.28
2022-08-17T12:16:10.138Z,36.04
2022-08-17T12:18:42.019Z,35.24
2022-08-17T12:21:28.134Z,37.26
2022-08-17T12:24:06.654Z,36.36
2022-08-17T12:26:37.168Z,34.40
2022-08-17T12:29:09.200Z,34.67
2022-08-17T12:31:46.104Z,34.54
2022-08-17T12:34:19.119Z,35.01
2022-08-17T12:36:50.505Z,34.87
2022-08-17T12:39:22.886Z,34.73
2022-08-17T12:42:01.973Z,33.81
2022-08-17T12:44:33.458Z,33.52
2022-08-17T12:47:09.879Z,33.17
2022-08-17T12:49:41.063Z,33.27
2022-08-17T12:52:14.794Z,33.28
2022-08-17T12:54:54.662Z,32.40
2022-08-17T12:57:25.667Z,32.33
2022-08-17T12:59:59.090Z,33.38
2022-08-17T13:02:43.816Z,32.47
2022-08-17T13:05:30.967Z,31.36
2022-08-17T13:08:01.157Z,31.05
2022-08-17T13:10:33.026Z,30.16
2022-08-17T13:13:05.133Z,30.40
2022-08-17T13:15:44.432Z,31.34
2022-08-17T13:18:39.175Z,30.63
2022-08-17T13:21:12.403Z,28.63
2022-08-17T13:23:46.548Z,29.06
2022-08-17T13:26:30.210Z,28.91
2022-08-17T13:28:59.137Z,28.55
2022-08-17T13:31:41.388Z,28.06
2022-08-17T13:34:38.723Z,28.49
2022-08-17T13:37:32.801Z,27.77
2022-08-17T13:40:05.043Z,27.64
2022-08-17T13:42:51.727Z,28.21
2022-08-17T13:45:53.145Z,28.53
2022-08-17T13:48:25.963Z,29.00
2022-08-17T13:51:18.480Z,27.60
2022-08-17T13:54:02.481Z,27.97
2022-08-17T13:56:48.025Z,26.96
2022-08-17T13:59:38.199Z,27.42
2022-08-17T14:02:15.959Z,27.16
2022-08-17T14:04:45.904Z,26.46
2022-08-17T14:07:32.300Z,25.72
2022-08-17T14:10:04.083Z,26.32
2022-08-17T14:12:34.479Z,25.77
2022-08-17T14:15:03.092Z,25.45
2022-08-17T14:17:36.359Z,25.57
2022-08-17T14:20:09.609Z,25.21
2022-08-17T14:22:41.574Z,24.99
2022-08-17T14:25:12.481Z,24.46
2022-08-17T14:27:41.887Z,23.76
2022-08-17T14:30:21.998Z,24.20
2022-08-17T14:32:52.101Z,23.98
2022-08-17T14:35:22.701Z,23.09
2022-08-17T14:37:53.152Z,23.46
2022-08-17T14:40:25.151Z,23.29
2022-08-17T14:42:55.340Z,23.04
2022-08-17T14:45:30.186Z,22.66
2022-08-17T14:48:01.142Z,23.12
2022-08-17T14:50:29.377Z,22.61
2022-08-17T14:52:59.217Z,22.90
2022-08-17T14:55:31.210Z,22.32
2022-08-17T14:57:59.143Z,22.16
2022-08-17T15:00:27.387Z,21.64
2022-08-17T15:02:58.264Z,21.44
2022-08-17T15:05:27.801Z,21.61
2022-08-17T15:07:55.962Z,21.74
2022-08-17T15:10:26.056Z,21.66
2022-08-17T15:12:54.628Z,20.61
2022-08-17T15:15:22.656Z,21.37
2022-08-17T15:17:51.386Z,21.22
2022-08-17T15:20:20.861Z,22.29
2022-08-17T15:22:50.298Z,20.56
2022-08-17T15:25:19.397Z,19.73
2022-08-17T15:27:48.947Z,19.91
2022-08-17T15:30:17.315Z,19.06
2022-08-17T15:32:50.965Z,20.15
2022-08-17T15:35:28.250Z,18.64
2022-08-17T15:37:57.230Z,17.95
2022-08-17T15:40:25.284Z,18.32
2022-08-17T15:42:54.621Z,17.65
2022-08-17T15:45:24.719Z,16.56
2022-08-17T15:47:53.251Z,17.06
2022-08-17T15:50:21.284Z,17.19
2022-08-17T15:52:54.935Z,17.53
2022-08-17T15:55:24.273Z,18.24
2022-08-17T15:57:53.379Z,18.75
2022-08-17T16:00:24.125Z,18.24
2022-08-17T16:03:44.311Z,18.00
2022-08-17T16:05:40.691Z,18.94
2022-08-17T16:08:09.066Z,18.56
2022-08-17T16:10:37.249Z,18.16
2022-08-17T16:13:06.001Z,18.37
2022-08-17T16:15:54.828Z,17.85
2022-08-17T16:18:25.857Z,17.56
2022-08-17T16:20:55.143Z,17.14
2022-08-17T16:23:23.125Z,17.44
2022-08-17T16:25:53.934Z,17.82
2022-08-17T16:28:35.868Z,17.87
2022-08-17T16:31:07.971Z,17.74
2022-08-17T16:33:37.744Z,17.20
2022-08-17T16:36:05.841Z,18.07
2022-08-17T16:38:33.900Z,17.99
2022-08-17T16:41:01.872Z,18.24
2022-08-17T16:43:30.197Z,19.24
2022-08-17T16:45:58.444Z,19.81
2022-08-17T16:48:29.017Z,21.52
2022-08-17T16:51:03.111Z,23.65
2022-08-17T16:53:32.965Z,25.10
2022-08-17T16:56:00.927Z,25.75
2022-08-17T16:58:29.292Z,26.43
2022-08-17T17:00:59.650Z,27.76
2022-08-17T17:03:32.201Z,28.05
2022-08-17T17:06:06.543Z,28.77
2022-08-17T17:08:39.473Z,28.57
2022-08-17T17:11:13.979Z,29.76
2022-08-17T17:13:44.670Z,29.80
2022-08-17T17:16:15.664Z,30.55
2022-08-17T17:18:52.316Z,30.92
2022-08-17T17:21:25.076Z,31.56
2022-08-17T17:23:56.605Z,32.26
2022-08-17T17:26:36.610Z,32.13
2022-08-17T17:29:18.479Z,32.76
2022-08-17T17:31:52.596Z,32.82
2022-08-17T17:34:22.454Z,32.37
2022-08-17T17:36:51.730Z,34.27
2022-08-17T17:39:21.069Z,33.09
2022-08-17T17:41:50.887Z,33.99
2022-08-17T17:44:21.299Z,35.53
2022-08-17T17:46:54.497Z,37.03
2022-08-17T17:49:24.905Z,36.65
2022-08-17T17:52:09.888Z,35.03
2022-08-17T17:54:52.363Z,38.50
2022-08-17T17:57:28.300Z,39.29
2022-08-17T18:00:05.258Z,39.89
2022-08-17T18:02:51.603Z,41.15
2022-08-17T18:06:01.150Z,41.27
2022-08-17T18:08:49.412Z,42.59
2022-08-17T18:11:24.408Z,43.24
2022-08-17T18:14:04.292Z,44.90
2022-08-17T18:16:33.638Z,45.05
2022-08-17T18:19:02.348Z,44.86
2022-08-17T18:21:36.237Z,45.25
2022-08-17T18:24:06.016Z,45.74
2022-08-17T18:26:39.504Z,45.02
2022-08-17T18:29:15.992Z,44.00
2022-08-17T18:31:43.963Z,46.09
2022-08-17T18:34:45.468Z,46.94
2022-08-17T18:37:11.688Z,47.90
2022-08-17T18:39:44.298Z,47.13
2022-08-17T18:42:27.056Z,47.22
2022-08-17T18:44:55.863Z,48.18
2022-08-17T18:47:25.106Z,48.58
2022-08-17T18:49:57.754Z,49.50
2022-08-17T18:52:29.195Z,48.70
2022-08-17T18:55:02.107Z,47.19
2022-08-17T18:57:32.723Z,46.43
2022-08-17T19:00:01.288Z,48.33
2022-08-17T19:02:46.135Z,48.99
2022-08-17T19:05:26.300Z,49.67
2022-08-17T19:07:56.022Z,48.67
2022-08-17T19:10:25.798Z,48.18
2022-08-17T19:13:00.484Z,48.17
2022-08-17T19:15:34.741Z,47.52
2022-08-17T19:18:04.702Z,47.35
2022-08-17T19:20:35.555Z,49.53
2022-08-17T19:23:13.534Z,50.31
2022-08-17T19:25:44.464Z,52.00
2022-08-17T19:28:22.238Z,51.53
2022-08-17T19:30:51.908Z,51.70
2022-08-17T19:33:21.023Z,51.67
2022-08-17T19:35:54.370Z,52.11
2022-08-17T19:38:28.886Z,52.67
2022-08-17T19:41:02.000Z,52.07
2022-08-17T19:43:36.017Z,51.12
2022-08-17T19:46:06.445Z,50.54
2022-08-17T19:48:41.597Z,50.57
2022-08-17T19:51:11.932Z,50.80
2022-08-17T19:54:04.478Z,51.69
2022-08-17T19:56:37.205Z,52.82
2022-08-17T19:59:10.758Z,50.20
2022-08-17T20:01:42.567Z,51.32
2022-08-17T20:04:14.479Z,52.64
2022-08-17T20:06:45.323Z,53.76
2022-08-17T20:09:19.910Z,54.14
2022-08-17T20:11:50.298Z,53.22
2022-08-17T20:14:21.967Z,52.84
2022-08-17T20:16:50.013Z,52.54
2022-08-17T20:19:22.418Z,52.75
2022-08-17T20:21:53.732Z,52.49
2022-08-17T20:24:27.142Z,52.08
2022-08-17T20:26:58.424Z,53.20
2022-08-17T20:29:39.706Z,53.46
2022-08-17T20:32:15.097Z,53.59
2022-08-17T20:34:46.541Z,54.08
2022-08-17T20:37:27.463Z,53.22
2022-08-17T20:40:10.299Z,52.32
2022-08-17T20:42:39.817Z,52.65
2022-08-17T20:45:23.869Z,52.96
2022-08-17T20:48:18.734Z,53.29
2022-08-17T20:50:44.981Z,53.97
2022-08-17T20:53:15.071Z,53.80
2022-08-17T20:55:54.946Z,53.30
2022-08-17T20:58:46.768Z,53.28
2022-08-17T21:01:17.474Z,54.21
2022-08-17T21:03:51.919Z,55.13
2022-08-17T21:06:21.502Z,54.02
2022-08-17T21:08:53.857Z,53.94
2022-08-17T21:11:57.303Z,53.46
2022-08-17T21:14:42.173Z,54.02
2022-08-17T21:17:20.053Z,53.23
2022-08-17T21:20:10.395Z,53.34
2022-08-17T21:22:47.399Z,55.39
2022-08-17T21:25:27.587Z,54.81
2022-08-17T21:28:02.828Z,54.93
2022-08-17T21:30:48.299Z,54.68
2022-08-17T21:33:21.561Z,54.92
2022-08-17T21:35:52.644Z,55.79
2022-08-17T21:38:22.205Z,56.63
2022-08-17T21:40:51.838Z,56.70
2022-08-17T21:43:25.041Z,55.50
2022-08-17T21:46:00.000Z,56.74
2022-08-17T21:48:28.921Z,57.12
2022-08-17T21:51:02.098Z,57.95
2022-08-17T21:53:35.310Z,56.93
2022-08-17T21:56:05.072Z,56.79
2022-08-17T21:58:34.919Z,57.06
2022-08-17T22:01:22.434Z,57.66
2022-08-17T22:03:56.951Z,57.57
2022-08-17T22:06:28.286Z,57.69
2022-08-17T22:09:00.823Z,57.87
2022-08-17T22:11:29.416Z,57.76
2022-08-17T22:14:05.521Z,57.90
2022-08-17T22:16:37.857Z,58.14
2022-08-17T22:19:06.834Z,58.72
2022-08-17T22:21:35.149Z,58.82
2022-08-17T22:24:07.448Z,58.83
2022-08-17T22:26:54.042Z,59.06
2022-08-17T22:29:42.748Z,59.34
2022-08-17T22:32:13.584Z,59.57
2022-08-17T22:34:41.658Z,59.31
2022-08-17T22:37:27.244Z,58.97
2022-08-17T22:39:58.673Z,59.14
2022-08-17T22:42:27.918Z,59.34
2022-08-17T22:44:55.917Z,59.59
2022-08-17T22:47:33.014Z,59.59
2022-08-17T22:50:03.326Z,59.78
2022-08-17T22:52:35.236Z,59.46
2022-08-17T22:55:22.950Z,59.32
2022-08-17T22:58:08.574Z,59.29
2022-08-17T23:00:38.674Z,59.57
2022-08-17T23:03:10.705Z,59.70
2022-08-17T23:05:39.967Z,59.82
2022-08-17T23:08:08.000Z,59.58
2022-08-17T23:10:37.554Z,59.77
2022-08-17T23:13:05.618Z,60.02
2022-08-17T23:15:34.137Z,60.35
2022-08-17T23:18:05.400Z,60.30
2022-08-17T23:20:37.115Z,60.27
2022-08-17T23:23:05.738Z,60.44
2022-08-17T23:25:34.516Z,61.14
2022-08-17T23:28:03.074Z,62.28
2022-08-17T23:30:32.061Z,61.08
2022-08-17T23:33:01.353Z,62.19
2022-08-17T23:35:39.074Z,62.64
2022-08-17T23:38:10.977Z,62.24
2022-08-17T23:40:39.550Z,62.23
2022-08-17T23:43:23.623Z,61.79
2022-08-17T23:45:53.480Z,61.65
2022-08-17T23:48:35.416Z,61.69
2022-08-17T23:51:06.003Z,61.84
2022-08-17T23:53:36.433Z,62.13
2022-08-17T23:56:10.283Z,61.83
2022-08-17T23:58:39.224Z,61.56
